sensor_id;sensor_type;location;lat;lon;timestamp;temperature;humidity
14771;DHT22;7477;45.222;5.688;2023-02-21T00:01:49;7.70;99.90
14771;DHT22;7477;45.222;5.688;2023-02-21T00:05:28;7.70;99.90
14771;DHT22;7477;45.222;5.688;2023-02-21T00:09:06;7.70;99.90
14771;DHT22;7477;45.222;5.688;2023-02-21T00:12:44;7.70;99.90
14771;DHT22;7477;45.222;5.688;2023-02-21T00:16:22;7.70;99.90
14771;DHT22;7477;45.222;5.688;2023-02-21T00:20:01;7.60;99.90
14771;DHT22;7477;45.222;5.688;2023-02-21T00:23:39;7.60;99.90
14771;DHT22;7477;45.222;5.688;2023-02-21T00:27:17;7.50;99.90
14771;DHT22;7477;45.222;5.688;2023-02-21T00:30:55;7.50;99.90
14771;DHT22;7477;45.222;5.688;2023-02-21T00:34:33;7.50;99.90
14771;DHT22;7477;45.222;5.688;2023-02-21T00:38:12;7.50;99.90
14771;DHT22;7477;45.222;5.688;2023-02-21T00:41:50;7.50;99.90
14771;DHT22;7477;45.222;5.688;2023-02-21T00:45:28;7.40;99.90
14771;DHT22;7477;45.222;5.688;2023-02-21T00:49:06;7.40;99.90
14771;DHT22;7477;45.222;5.688;2023-02-21T00:52:44;7.40;99.90
14771;DHT22;7477;45.222;5.688;2023-02-21T00:56:22;7.30;99.90
14771;DHT22;7477;45.222;5.688;2023-02-21T01:00:00;7.30;99.90
14771;DHT22;7477;45.222;5.688;2023-02-21T01:03:38;7.30;99.90
14771;DHT22;7477;45.222;5.688;2023-02-21T01:07:16;7.30;99.90
14771;DHT22;7477;45.222;5.688;2023-02-21T01:10:54;7.20;99.90
14771;DHT22;7477;45.222;5.688;2023-02-21T01:14:32;7.20;99.90
14771;DHT22;7477;45.222;5.688;2023-02-21T01:18:10;7.20;99.90
14771;DHT22;7477;45.222;5.688;2023-02-21T01:21:48;7.10;99.90
14771;DHT22;7477;45.222;5.688;2023-02-21T01:25:26;7.10;99.90
14771;DHT22;7477;45.222;5.688;2023-02-21T01:29:05;7.10;99.90
14771;DHT22;7477;45.222;5.688;2023-02-21T01:32:43;7.00;99.90
14771;DHT22;7477;45.222;5.688;2023-02-21T01:36:21;7.10;99.90
14771;DHT22;7477;45.222;5.688;2023-02-21T01:40:00;7.00;99.90
14771;DHT22;7477;45.222;5.688;2023-02-21T01:43:38;7.00;99.90
14771;DHT22;7477;45.222;5.688;2023-02-21T01:47:16;7.00;99.90
14771;DHT22;7477;45.222;5.688;2023-02-21T01:50:55;7.00;99.90
14771;DHT22;7477;45.222;5.688;2023-02-21T01:54:39;6.90;99.90
14771;DHT22;7477;45.222;5.688;2023-02-21T01:58:20;6.90;99.90
14771;DHT22;7477;45.222;5.688;2023-02-21T02:06:15;6.90;99.90
14771;DHT22;7477;45.222;5.688;2023-02-21T02:09:54;6.80;99.90
14771;DHT22;7477;45.222;5.688;2023-02-21T02:17:19;6.70;99.90
14771;DHT22;7477;45.222;5.688;2023-02-21T02:45:50;6.50;99.90
14771;DHT22;7477;45.222;5.688;2023-02-21T02:49:21;6.50;99.90
14771;DHT22;7477;45.222;5.688;2023-02-21T02:52:53;6.40;99.90
14771;DHT22;7477;45.222;5.688;2023-02-21T02:56:14;6.50;99.90
14771;DHT22;7477;45.222;5.688;2023-02-21T02:59:34;6.50;99.90
14771;DHT22;7477;45.222;5.688;2023-02-21T03:14:28;6.20;99.90
14771;DHT22;7477;45.222;5.688;2023-02-21T03:17:58;6.20;99.90
14771;DHT22;7477;45.222;5.688;2023-02-21T03:21:27;6.20;99.90
14771;DHT22;7477;45.222;5.688;2023-02-21T03:24:48;6.20;99.90
14771;DHT22;7477;45.222;5.688;2023-02-21T03:28:08;6.10;99.90
14771;DHT22;7477;45.222;5.688;2023-02-21T03:31:34;6.10;99.90
14771;DHT22;7477;45.222;5.688;2023-02-21T03:34:54;6.10;99.90
14771;DHT22;7477;45.222;5.688;2023-02-21T03:38:14;6.10;99.90
14771;DHT22;7477;45.222;5.688;2023-02-21T03:41:33;6.00;99.90
14771;DHT22;7477;45.222;5.688;2023-02-21T03:44:52;6.00;99.90
14771;DHT22;7477;45.222;5.688;2023-02-21T03:48:11;5.90;99.90
14771;DHT22;7477;45.222;5.688;2023-02-21T03:51:31;5.90;99.90
14771;DHT22;7477;45.222;5.688;2023-02-21T03:54:50;5.90;99.90
14771;DHT22;7477;45.222;5.688;2023-02-21T03:58:09;5.90;99.90
14771;DHT22;7477;45.222;5.688;2023-02-21T04:01:28;5.90;99.90
14771;DHT22;7477;45.222;5.688;2023-02-21T04:04:47;5.90;99.90
14771;DHT22;7477;45.222;5.688;2023-02-21T04:08:07;5.90;99.90
14771;DHT22;7477;45.222;5.688;2023-02-21T04:11:26;5.80;99.90
14771;DHT22;7477;45.222;5.688;2023-02-21T04:14:45;5.80;99.90
14771;DHT22;7477;45.222;5.688;2023-02-21T04:18:05;5.80;99.90
14771;DHT22;7477;45.222;5.688;2023-02-21T04:21:24;5.70;99.90
14771;DHT22;7477;45.222;5.688;2023-02-21T04:24:43;5.70;99.90
14771;DHT22;7477;45.222;5.688;2023-02-21T04:28:02;5.70;99.90
14771;DHT22;7477;45.222;5.688;2023-02-21T04:31:22;5.70;99.90
14771;DHT22;7477;45.222;5.688;2023-02-21T04:34:41;5.70;99.90
14771;DHT22;7477;45.222;5.688;2023-02-21T04:38:01;5.70;99.90
14771;DHT22;7477;45.222;5.688;2023-02-21T04:41:21;5.70;99.90
14771;DHT22;7477;45.222;5.688;2023-02-21T04:44:40;5.60;99.90
14771;DHT22;7477;45.222;5.688;2023-02-21T04:47:59;5.60;99.90
14771;DHT22;7477;45.222;5.688;2023-02-21T04:51:21;5.50;99.90
14771;DHT22;7477;45.222;5.688;2023-02-21T04:54:41;5.60;99.90
14771;DHT22;7477;45.222;5.688;2023-02-21T04:58:00;5.60;99.90
14771;DHT22;7477;45.222;5.688;2023-02-21T05:01:21;5.50;99.90
14771;DHT22;7477;45.222;5.688;2023-02-21T05:04:40;5.50;99.90
14771;DHT22;7477;45.222;5.688;2023-02-21T05:08:01;5.40;99.90
14771;DHT22;7477;45.222;5.688;2023-02-21T05:11:21;5.50;99.90
14771;DHT22;7477;45.222;5.688;2023-02-21T05:14:40;5.40;99.90
14771;DHT22;7477;45.222;5.688;2023-02-21T05:17:59;5.40;99.90
14771;DHT22;7477;45.222;5.688;2023-02-21T05:21:18;5.40;99.90
14771;DHT22;7477;45.222;5.688;2023-02-21T05:24:41;5.40;99.90
14771;DHT22;7477;45.222;5.688;2023-02-21T05:28:00;5.50;99.90
14771;DHT22;7477;45.222;5.688;2023-02-21T05:31:19;5.60;99.90
14771;DHT22;7477;45.222;5.688;2023-02-21T05:34:39;5.60;99.90
14771;DHT22;7477;45.222;5.688;2023-02-21T05:38:02;5.60;99.90
14771;DHT22;7477;45.222;5.688;2023-02-21T05:41:22;5.70;99.90
14771;DHT22;7477;45.222;5.688;2023-02-21T05:44:46;5.70;99.90
14771;DHT22;7477;45.222;5.688;2023-02-21T05:48:06;5.80;99.90
14771;DHT22;7477;45.222;5.688;2023-02-21T05:51:26;5.70;99.90
14771;DHT22;7477;45.222;5.688;2023-02-21T05:54:45;5.60;99.90
14771;DHT22;7477;45.222;5.688;2023-02-21T05:58:04;5.70;99.90
14771;DHT22;7477;45.222;5.688;2023-02-21T06:01:24;5.60;99.90
14771;DHT22;7477;45.222;5.688;2023-02-21T06:04:43;5.60;99.90
14771;DHT22;7477;45.222;5.688;2023-02-21T06:08:03;5.60;99.90
14771;DHT22;7477;45.222;5.688;2023-02-21T06:11:25;5.60;99.90
14771;DHT22;7477;45.222;5.688;2023-02-21T06:14:45;5.50;99.90
14771;DHT22;7477;45.222;5.688;2023-02-21T06:18:05;5.60;99.90
14771;DHT22;7477;45.222;5.688;2023-02-21T06:21:24;5.60;99.90
14771;DHT22;7477;45.222;5.688;2023-02-21T06:24:43;5.60;99.90
14771;DHT22;7477;45.222;5.688;2023-02-21T06:28:02;5.60;99.90
14771;DHT22;7477;45.222;5.688;2023-02-21T06:31:21;5.50;99.90
14771;DHT22;7477;45.222;5.688;2023-02-21T06:34:43;5.60;99.90
14771;DHT22;7477;45.222;5.688;2023-02-21T06:38:02;5.60;99.90
14771;DHT22;7477;45.222;5.688;2023-02-21T06:41:27;5.50;99.90
14771;DHT22;7477;45.222;5.688;2023-02-21T06:44:48;5.50;99.90
14771;DHT22;7477;45.222;5.688;2023-02-21T06:48:07;5.50;99.90
14771;DHT22;7477;45.222;5.688;2023-02-21T06:51:27;5.50;99.90
14771;DHT22;7477;45.222;5.688;2023-02-21T06:54:52;5.50;99.90
14771;DHT22;7477;45.222;5.688;2023-02-21T06:58:12;5.50;99.90
14771;DHT22;7477;45.222;5.688;2023-02-21T07:01:31;5.50;99.90
14771;DHT22;7477;45.222;5.688;2023-02-21T07:04:50;5.50;99.90
14771;DHT22;7477;45.222;5.688;2023-02-21T07:08:10;5.50;99.90
14771;DHT22;7477;45.222;5.688;2023-02-21T07:11:31;5.50;99.90
14771;DHT22;7477;45.222;5.688;2023-02-21T07:14:51;5.50;99.90
14771;DHT22;7477;45.222;5.688;2023-02-21T07:18:10;5.50;99.90
14771;DHT22;7477;45.222;5.688;2023-02-21T07:21:29;5.50;99.90
14771;DHT22;7477;45.222;5.688;2023-02-21T07:24:49;5.50;99.90
14771;DHT22;7477;45.222;5.688;2023-02-21T07:28:09;5.50;99.90
14771;DHT22;7477;45.222;5.688;2023-02-21T07:31:28;5.60;99.90
14771;DHT22;7477;45.222;5.688;2023-02-21T07:34:47;5.60;99.90
14771;DHT22;7477;45.222;5.688;2023-02-21T07:38:06;5.60;99.90
14771;DHT22;7477;45.222;5.688;2023-02-21T07:41:26;5.60;99.90
14771;DHT22;7477;45.222;5.688;2023-02-21T07:44:46;5.60;99.90
14771;DHT22;7477;45.222;5.688;2023-02-21T07:48:06;5.70;99.90
14771;DHT22;7477;45.222;5.688;2023-02-21T07:51:29;5.60;99.90
14771;DHT22;7477;45.222;5.688;2023-02-21T07:54:49;5.60;99.90
14771;DHT22;7477;45.222;5.688;2023-02-21T07:58:08;5.60;99.90
14771;DHT22;7477;45.222;5.688;2023-02-21T08:01:28;5.60;99.90
14771;DHT22;7477;45.222;5.688;2023-02-21T08:04:51;5.70;99.90
14771;DHT22;7477;45.222;5.688;2023-02-21T08:08:10;5.80;99.90
14771;DHT22;7477;45.222;5.688;2023-02-21T08:11:30;5.90;99.90
14771;DHT22;7477;45.222;5.688;2023-02-21T08:14:50;5.90;99.90
14771;DHT22;7477;45.222;5.688;2023-02-21T08:18:18;5.90;99.90
14771;DHT22;7477;45.222;5.688;2023-02-21T08:21:42;5.90;99.90
14771;DHT22;7477;45.222;5.688;2023-02-21T08:25:03;5.90;99.90
14771;DHT22;7477;45.222;5.688;2023-02-21T08:28:22;5.90;99.90
14771;DHT22;7477;45.222;5.688;2023-02-21T08:31:41;6.00;99.90
14771;DHT22;7477;45.222;5.688;2023-02-21T08:35:03;6.00;99.90
14771;DHT22;7477;45.222;5.688;2023-02-21T08:38:24;6.10;99.90
14771;DHT22;7477;45.222;5.688;2023-02-21T08:41:45;6.10;99.90
14771;DHT22;7477;45.222;5.688;2023-02-21T08:45:07;6.10;99.90
14771;DHT22;7477;45.222;5.688;2023-02-21T08:48:28;6.20;99.90
14771;DHT22;7477;45.222;5.688;2023-02-21T08:51:47;6.10;99.90
14771;DHT22;7477;45.222;5.688;2023-02-21T08:55:07;6.10;99.90
14771;DHT22;7477;45.222;5.688;2023-02-21T08:58:26;6.20;99.90
14771;DHT22;7477;45.222;5.688;2023-02-21T09:01:45;6.30;99.90
14771;DHT22;7477;45.222;5.688;2023-02-21T09:05:16;6.40;99.90
14771;DHT22;7477;45.222;5.688;2023-02-21T09:08:37;6.40;99.90
14771;DHT22;7477;45.222;5.688;2023-02-21T09:11:57;6.50;99.90
14771;DHT22;7477;45.222;5.688;2023-02-21T09:15:16;6.60;99.90
14771;DHT22;7477;45.222;5.688;2023-02-21T09:18:35;6.60;99.90
14771;DHT22;7477;45.222;5.688;2023-02-21T09:21:54;6.70;99.90
14771;DHT22;7477;45.222;5.688;2023-02-21T09:25:18;6.80;99.90
14771;DHT22;7477;45.222;5.688;2023-02-21T09:28:38;6.90;99.90
14771;DHT22;7477;45.222;5.688;2023-02-21T09:32:02;7.00;99.90
14771;DHT22;7477;45.222;5.688;2023-02-21T09:35:22;7.10;99.90
14771;DHT22;7477;45.222;5.688;2023-02-21T09:38:41;7.10;99.90
14771;DHT22;7477;45.222;5.688;2023-02-21T09:42:00;7.30;99.90
14771;DHT22;7477;45.222;5.688;2023-02-21T09:45:20;7.30;99.90
14771;DHT22;7477;45.222;5.688;2023-02-21T09:48:41;7.40;99.90
14771;DHT22;7477;45.222;5.688;2023-02-21T09:52:02;7.40;99.90
14771;DHT22;7477;45.222;5.688;2023-02-21T09:55:34;7.50;99.90
14771;DHT22;7477;45.222;5.688;2023-02-21T09:58:55;7.60;99.90
14771;DHT22;7477;45.222;5.688;2023-02-21T10:06:45;7.80;99.90
14771;DHT22;7477;45.222;5.688;2023-02-21T10:10:09;7.90;99.90
14771;DHT22;7477;45.222;5.688;2023-02-21T10:13:56;7.90;99.90
14771;DHT22;7477;45.222;5.688;2023-02-21T10:20:58;8.10;99.90
14771;DHT22;7477;45.222;5.688;2023-02-21T10:24:24;8.20;99.90
14771;DHT22;7477;45.222;5.688;2023-02-21T10:27:44;8.20;99.90
14771;DHT22;7477;45.222;5.688;2023-02-21T10:31:15;8.20;99.90
14771;DHT22;7477;45.222;5.688;2023-02-21T10:34:36;8.30;99.90
14771;DHT22;7477;45.222;5.688;2023-02-21T10:37:57;8.40;99.90
14771;DHT22;7477;45.222;5.688;2023-02-21T10:41:17;8.50;99.90
14771;DHT22;7477;45.222;5.688;2023-02-21T10:44:36;8.60;99.90
14771;DHT22;7477;45.222;5.688;2023-02-21T10:48:10;8.70;99.90
14771;DHT22;7477;45.222;5.688;2023-02-21T10:51:32;8.70;99.90
14771;DHT22;7477;45.222;5.688;2023-02-21T10:58:26;8.90;99.90
14771;DHT22;7477;45.222;5.688;2023-02-21T11:01:46;9.00;99.90
14771;DHT22;7477;45.222;5.688;2023-02-21T11:05:15;9.10;99.90
14771;DHT22;7477;45.222;5.688;2023-02-21T11:08:40;9.10;99.90
14771;DHT22;7477;45.222;5.688;2023-02-21T11:15:34;9.20;99.90
14771;DHT22;7477;45.222;5.688;2023-02-21T11:19:13;9.30;99.90
14771;DHT22;7477;45.222;5.688;2023-02-21T11:26:06;9.40;99.90
14771;DHT22;7477;45.222;5.688;2023-02-21T11:29:27;9.60;99.90
14771;DHT22;7477;45.222;5.688;2023-02-21T11:32:54;9.80;99.90
14771;DHT22;7477;45.222;5.688;2023-02-21T11:36:16;9.70;99.90
14771;DHT22;7477;45.222;5.688;2023-02-21T11:39:37;9.80;99.90
14771;DHT22;7477;45.222;5.688;2023-02-21T11:43:23;9.90;99.90
14771;DHT22;7477;45.222;5.688;2023-02-21T11:46:48;12.00;99.90
14771;DHT22;7477;45.222;5.688;2023-02-21T11:50:09;10.00;99.90
14771;DHT22;7477;45.222;5.688;2023-02-21T11:53:39;10.30;99.90
14771;DHT22;7477;45.222;5.688;2023-02-21T12:00:42;10.30;99.90
14771;DHT22;7477;45.222;5.688;2023-02-21T12:07:42;10.60;99.90
14771;DHT22;7477;45.222;5.688;2023-02-21T12:15:24;10.90;99.90
14771;DHT22;7477;45.222;5.688;2023-02-21T12:25:56;11.10;99.90
14771;DHT22;7477;45.222;5.688;2023-02-21T12:32:49;11.30;99.90
14771;DHT22;7477;45.222;5.688;2023-02-21T12:47:33;11.70;99.90
14771;DHT22;7477;45.222;5.688;2023-02-21T12:50:57;11.70;99.90
14771;DHT22;7477;45.222;5.688;2023-02-21T12:54:42;11.70;99.90
14771;DHT22;7477;45.222;5.688;2023-02-21T13:01:40;12.00;99.90
14771;DHT22;7477;45.222;5.688;2023-02-21T13:05:06;12.00;99.90
14771;DHT22;7477;45.222;5.688;2023-02-21T13:12:11;12.00;99.90
14771;DHT22;7477;45.222;5.688;2023-02-21T13:15:32;12.20;99.90
14771;DHT22;7477;45.222;5.688;2023-02-21T13:18:56;12.40;99.90
14771;DHT22;7477;45.222;5.688;2023-02-21T13:33:44;12.70;99.90
14771;DHT22;7477;45.222;5.688;2023-02-21T13:37:25;11.40;99.90
14771;DHT22;7477;45.222;5.688;2023-02-21T13:44:16;12.80;99.90
14771;DHT22;7477;45.222;5.688;2023-02-21T13:51:47;13.00;99.90
14771;DHT22;7477;45.222;5.688;2023-02-21T13:58:42;13.00;99.90
14771;DHT22;7477;45.222;5.688;2023-02-21T14:02:20;12.70;99.90
14771;DHT22;7477;45.222;5.688;2023-02-21T14:12:30;13.10;99.90
14771;DHT22;7477;45.222;5.688;2023-02-21T14:15:57;13.00;99.90
14771;DHT22;7477;45.222;5.688;2023-02-21T14:19:23;13.10;99.90
14771;DHT22;7477;45.222;5.688;2023-02-21T14:22:43;13.20;99.90
14771;DHT22;7477;45.222;5.688;2023-02-21T14:26:04;13.30;99.90
14771;DHT22;7477;45.222;5.688;2023-02-21T14:29:38;13.20;99.90
14771;DHT22;7477;45.222;5.688;2023-02-21T14:33:13;13.30;99.90
14771;DHT22;7477;45.222;5.688;2023-02-21T14:36:37;13.40;99.90
14771;DHT22;7477;45.222;5.688;2023-02-21T14:51:12;13.40;99.90
14771;DHT22;7477;45.222;5.688;2023-02-21T14:58:26;13.40;99.90
14771;DHT22;7477;45.222;5.688;2023-02-21T15:05:53;13.50;99.90
14771;DHT22;7477;45.222;5.688;2023-02-21T15:09:20;13.60;99.90
14771;DHT22;7477;45.222;5.688;2023-02-21T15:16:12;13.60;99.90
14771;DHT22;7477;45.222;5.688;2023-02-21T15:19:33;13.60;99.90
14771;DHT22;7477;45.222;5.688;2023-02-21T15:26:26;13.90;99.90
14771;DHT22;7477;45.222;5.688;2023-02-21T15:30:13;13.90;99.90
14771;DHT22;7477;45.222;5.688;2023-02-21T15:33:39;13.90;99.90
14771;DHT22;7477;45.222;5.688;2023-02-21T15:37:15;14.00;99.90
14771;DHT22;7477;45.222;5.688;2023-02-21T15:40:36;14.00;99.90
14771;DHT22;7477;45.222;5.688;2023-02-21T15:44:11;14.00;99.90
14771;DHT22;7477;45.222;5.688;2023-02-21T15:47:33;14.00;99.90
14771;DHT22;7477;45.222;5.688;2023-02-21T15:50:53;14.10;99.90
14771;DHT22;7477;45.222;5.688;2023-02-21T15:54:26;14.20;99.90
14771;DHT22;7477;45.222;5.688;2023-02-21T15:57:57;14.20;99.90
14771;DHT22;7477;45.222;5.688;2023-02-21T16:01:19;14.10;99.90
14771;DHT22;7477;45.222;5.688;2023-02-21T16:04:47;13.80;99.90
14771;DHT22;7477;45.222;5.688;2023-02-21T16:08:13;13.70;99.90
14771;DHT22;7477;45.222;5.688;2023-02-21T16:18:40;13.40;99.90
14771;DHT22;7477;45.222;5.688;2023-02-21T16:22:35;13.20;99.90
14771;DHT22;7477;45.222;5.688;2023-02-21T16:26:22;13.20;99.90
14771;DHT22;7477;45.222;5.688;2023-02-21T16:29:46;13.10;99.90
14771;DHT22;7477;45.222;5.688;2023-02-21T16:33:05;13.10;99.90
14771;DHT22;7477;45.222;5.688;2023-02-21T16:36:26;13.10;99.90
14771;DHT22;7477;45.222;5.688;2023-02-21T16:39:47;13.00;99.90
14771;DHT22;7477;45.222;5.688;2023-02-21T16:43:07;13.00;99.90
14771;DHT22;7477;45.222;5.688;2023-02-21T16:46:32;12.90;99.90
14771;DHT22;7477;45.222;5.688;2023-02-21T16:49:51;12.90;99.90
14771;DHT22;7477;45.222;5.688;2023-02-21T16:53:11;12.90;99.90
14771;DHT22;7477;45.222;5.688;2023-02-21T16:56:31;12.80;99.90
14771;DHT22;7477;45.222;5.688;2023-02-21T16:59:50;12.80;99.90
14771;DHT22;7477;45.222;5.688;2023-02-21T17:03:09;12.70;99.90
14771;DHT22;7477;45.222;5.688;2023-02-21T17:06:28;12.70;99.90
14771;DHT22;7477;45.222;5.688;2023-02-21T17:09:48;12.60;99.90
14771;DHT22;7477;45.222;5.688;2023-02-21T17:13:08;12.50;99.90
14771;DHT22;7477;45.222;5.688;2023-02-21T17:16:27;12.50;99.90
14771;DHT22;7477;45.222;5.688;2023-02-21T17:19:47;12.40;99.90
14771;DHT22;7477;45.222;5.688;2023-02-21T17:23:06;12.40;99.90
14771;DHT22;7477;45.222;5.688;2023-02-21T17:26:25;12.30;99.90
14771;DHT22;7477;45.222;5.688;2023-02-21T17:29:46;12.30;99.90
14771;DHT22;7477;45.222;5.688;2023-02-21T17:33:06;12.20;99.90
14771;DHT22;7477;45.222;5.688;2023-02-21T17:36:28;12.20;99.90
14771;DHT22;7477;45.222;5.688;2023-02-21T17:39:52;12.10;99.90
14771;DHT22;7477;45.222;5.688;2023-02-21T17:43:14;12.10;99.90
14771;DHT22;7477;45.222;5.688;2023-02-21T17:46:33;12.00;99.90
14771;DHT22;7477;45.222;5.688;2023-02-21T17:49:53;11.90;99.90
14771;DHT22;7477;45.222;5.688;2023-02-21T17:53:17;11.90;99.90
14771;DHT22;7477;45.222;5.688;2023-02-21T17:56:37;11.90;99.90
14771;DHT22;7477;45.222;5.688;2023-02-21T17:59:56;11.80;99.90
14771;DHT22;7477;45.222;5.688;2023-02-21T18:03:15;11.80;99.90
14771;DHT22;7477;45.222;5.688;2023-02-21T18:06:35;11.80;99.90
14771;DHT22;7477;45.222;5.688;2023-02-21T18:09:54;11.80;99.90
14771;DHT22;7477;45.222;5.688;2023-02-21T18:13:19;11.70;99.90
14771;DHT22;7477;45.222;5.688;2023-02-21T18:16:38;11.70;99.90
14771;DHT22;7477;45.222;5.688;2023-02-21T18:19:57;11.70;99.90
14771;DHT22;7477;45.222;5.688;2023-02-21T18:23:17;11.60;99.90
14771;DHT22;7477;45.222;5.688;2023-02-21T18:26:37;11.50;99.90
14771;DHT22;7477;45.222;5.688;2023-02-21T18:29:57;11.40;99.90
14771;DHT22;7477;45.222;5.688;2023-02-21T18:33:17;11.40;99.90
14771;DHT22;7477;45.222;5.688;2023-02-21T18:36:37;11.30;99.90
14771;DHT22;7477;45.222;5.688;2023-02-21T18:39:58;11.30;99.90
14771;DHT22;7477;45.222;5.688;2023-02-21T18:43:23;11.20;99.90
14771;DHT22;7477;45.222;5.688;2023-02-21T18:46:54;11.10;99.90
14771;DHT22;7477;45.222;5.688;2023-02-21T18:50:13;11.10;99.90
14771;DHT22;7477;45.222;5.688;2023-02-21T18:53:33;11.00;99.90
14771;DHT22;7477;45.222;5.688;2023-02-21T18:56:52;11.00;99.90
14771;DHT22;7477;45.222;5.688;2023-02-21T19:00:17;10.90;99.90
14771;DHT22;7477;45.222;5.688;2023-02-21T19:03:36;10.90;99.90
14771;DHT22;7477;45.222;5.688;2023-02-21T19:06:56;10.90;99.90
14771;DHT22;7477;45.222;5.688;2023-02-21T19:10:17;10.80;99.90
14771;DHT22;7477;45.222;5.688;2023-02-21T19:13:37;10.80;99.90
14771;DHT22;7477;45.222;5.688;2023-02-21T19:16:56;10.80;99.90
14771;DHT22;7477;45.222;5.688;2023-02-21T19:20:16;10.80;99.90
14771;DHT22;7477;45.222;5.688;2023-02-21T19:23:38;10.80;99.90
14771;DHT22;7477;45.222;5.688;2023-02-21T19:26:58;10.80;99.90
14771;DHT22;7477;45.222;5.688;2023-02-21T19:30:18;10.70;99.90
14771;DHT22;7477;45.222;5.688;2023-02-21T19:33:38;10.70;99.90
14771;DHT22;7477;45.222;5.688;2023-02-21T19:36:58;10.70;99.90
14771;DHT22;7477;45.222;5.688;2023-02-21T19:40:17;10.60;99.90
14771;DHT22;7477;45.222;5.688;2023-02-21T19:43:37;10.60;99.90
14771;DHT22;7477;45.222;5.688;2023-02-21T19:46:56;10.60;99.90
14771;DHT22;7477;45.222;5.688;2023-02-21T19:50:16;10.60;99.90
14771;DHT22;7477;45.222;5.688;2023-02-21T19:53:36;10.60;99.90
14771;DHT22;7477;45.222;5.688;2023-02-21T19:56:56;10.50;99.90
14771;DHT22;7477;45.222;5.688;2023-02-21T20:00:15;10.50;99.90
14771;DHT22;7477;45.222;5.688;2023-02-21T20:03:35;10.50;99.90
14771;DHT22;7477;45.222;5.688;2023-02-21T20:06:57;10.50;99.90
14771;DHT22;7477;45.222;5.688;2023-02-21T20:10:18;10.50;99.90
14771;DHT22;7477;45.222;5.688;2023-02-21T20:13:43;10.50;99.90
14771;DHT22;7477;45.222;5.688;2023-02-21T20:17:02;10.40;99.90
14771;DHT22;7477;45.222;5.688;2023-02-21T20:20:22;10.40;99.90
14771;DHT22;7477;45.222;5.688;2023-02-21T20:23:42;10.40;99.90
14771;DHT22;7477;45.222;5.688;2023-02-21T20:27:02;10.30;99.90
14771;DHT22;7477;45.222;5.688;2023-02-21T20:30:22;10.30;99.90
14771;DHT22;7477;45.222;5.688;2023-02-21T20:33:41;10.30;99.90
14771;DHT22;7477;45.222;5.688;2023-02-21T20:37:00;10.20;99.90
14771;DHT22;7477;45.222;5.688;2023-02-21T20:40:19;10.10;99.90
14771;DHT22;7477;45.222;5.688;2023-02-21T20:43:40;10.00;99.90
14771;DHT22;7477;45.222;5.688;2023-02-21T20:46:59;9.90;99.90
14771;DHT22;7477;45.222;5.688;2023-02-21T20:50:21;9.80;99.90
14771;DHT22;7477;45.222;5.688;2023-02-21T20:53:43;9.60;99.90
14771;DHT22;7477;45.222;5.688;2023-02-21T20:57:06;9.60;99.90
14771;DHT22;7477;45.222;5.688;2023-02-21T21:00:26;9.60;99.90
14771;DHT22;7477;45.222;5.688;2023-02-21T21:03:48;9.70;99.90
14771;DHT22;7477;45.222;5.688;2023-02-21T21:07:11;9.60;99.90
14771;DHT22;7477;45.222;5.688;2023-02-21T21:10:31;9.60;99.90
14771;DHT22;7477;45.222;5.688;2023-02-21T21:13:51;9.50;99.90
14771;DHT22;7477;45.222;5.688;2023-02-21T21:17:15;9.60;99.90
14771;DHT22;7477;45.222;5.688;2023-02-21T21:20:35;9.40;99.90
14771;DHT22;7477;45.222;5.688;2023-02-21T21:23:58;9.40;99.90
14771;DHT22;7477;45.222;5.688;2023-02-21T21:27:19;9.30;99.90
14771;DHT22;7477;45.222;5.688;2023-02-21T21:30:39;9.40;99.90
14771;DHT22;7477;45.222;5.688;2023-02-21T21:34:00;9.40;99.90
14771;DHT22;7477;45.222;5.688;2023-02-21T21:37:22;9.40;99.90
14771;DHT22;7477;45.222;5.688;2023-02-21T21:40:42;9.30;99.90
14771;DHT22;7477;45.222;5.688;2023-02-21T21:44:06;9.30;99.90
14771;DHT22;7477;45.222;5.688;2023-02-21T21:47:29;9.30;99.90
14771;DHT22;7477;45.222;5.688;2023-02-21T21:50:49;9.30;99.90
14771;DHT22;7477;45.222;5.688;2023-02-21T21:54:11;9.20;99.90
14771;DHT22;7477;45.222;5.688;2023-02-21T21:57:32;9.20;99.90
14771;DHT22;7477;45.222;5.688;2023-02-21T22:00:51;9.10;99.90
14771;DHT22;7477;45.222;5.688;2023-02-21T22:04:11;9.10;99.90
14771;DHT22;7477;45.222;5.688;2023-02-21T22:07:31;9.00;99.90
14771;DHT22;7477;45.222;5.688;2023-02-21T22:10:51;8.90;99.90
14771;DHT22;7477;45.222;5.688;2023-02-21T22:14:12;8.90;99.90
14771;DHT22;7477;45.222;5.688;2023-02-21T22:17:31;8.80;99.90
14771;DHT22;7477;45.222;5.688;2023-02-21T22:20:51;8.80;99.90
14771;DHT22;7477;45.222;5.688;2023-02-21T22:24:11;8.70;99.90
14771;DHT22;7477;45.222;5.688;2023-02-21T22:27:34;8.70;99.90
14771;DHT22;7477;45.222;5.688;2023-02-21T22:30:54;8.70;99.90
14771;DHT22;7477;45.222;5.688;2023-02-21T22:34:15;8.70;99.90
14771;DHT22;7477;45.222;5.688;2023-02-21T22:37:53;8.60;99.90
14771;DHT22;7477;45.222;5.688;2023-02-21T22:41:18;8.50;99.90
14771;DHT22;7477;45.222;5.688;2023-02-21T22:44:37;8.50;99.90
14771;DHT22;7477;45.222;5.688;2023-02-21T22:47:57;8.50;99.90
14771;DHT22;7477;45.222;5.688;2023-02-21T22:51:18;8.50;99.90
14771;DHT22;7477;45.222;5.688;2023-02-21T22:54:39;8.50;99.90
14771;DHT22;7477;45.222;5.688;2023-02-21T22:57:58;8.50;99.90
14771;DHT22;7477;45.222;5.688;2023-02-21T23:01:20;8.50;99.90
14771;DHT22;7477;45.222;5.688;2023-02-21T23:04:44;8.50;99.90
14771;DHT22;7477;45.222;5.688;2023-02-21T23:08:04;8.40;99.90
14771;DHT22;7477;45.222;5.688;2023-02-21T23:11:25;8.40;99.90
14771;DHT22;7477;45.222;5.688;2023-02-21T23:14:44;8.40;99.90
14771;DHT22;7477;45.222;5.688;2023-02-21T23:18:06;8.40;99.90
14771;DHT22;7477;45.222;5.688;2023-02-21T23:21:26;8.30;99.90
14771;DHT22;7477;45.222;5.688;2023-02-21T23:24:45;8.30;99.90
14771;DHT22;7477;45.222;5.688;2023-02-21T23:28:10;8.20;99.90
14771;DHT22;7477;45.222;5.688;2023-02-21T23:31:31;8.20;99.90
14771;DHT22;7477;45.222;5.688;2023-02-21T23:34:51;8.20;99.90
14771;DHT22;7477;45.222;5.688;2023-02-21T23:38:11;8.10;99.90
14771;DHT22;7477;45.222;5.688;2023-02-21T23:41:37;8.10;99.90
14771;DHT22;7477;45.222;5.688;2023-02-21T23:44:58;8.00;99.90
14771;DHT22;7477;45.222;5.688;2023-02-21T23:48:18;8.00;99.90
14771;DHT22;7477;45.222;5.688;2023-02-21T23:51:37;8.00;99.90
14771;DHT22;7477;45.222;5.688;2023-02-21T23:54:56;7.90;99.90
14771;DHT22;7477;45.222;5.688;2023-02-21T23:58:18;7.90;99.90
